Time;durP1;ratioP1;P1;durP2;ratioP2;P2;SDS_P1;SDS_P2;PMS_P1;PMS_P2;Temp;Humidity;BMP_temperature;BMP_pressure;BME280_temperature;BME280_humidity;BME280_pressure;Samples;Min_cycle;Max_cycle;Signal;HPM_P1;HPM_P2
2022/04/12 00:01:25;;;;;;;;;;;7.30;99.90;;;;;;2105681;67;20182;-73
2022/04/12 00:04:10;;;;;;;4.63;3.05;;;7.20;99.90;;;;;;2111056;67;20077;-73
2022/04/12 00:06:52;;;;;;;4.47;2.85;;;7.20;99.90;;;;;;2111004;67;20400;-73
2022/04/12 00:09:36;;;;;;;4.90;3.22;;;7.10;99.90;;;;;;2102948;68;20854;-74
2022/04/12 00:12:23;;;;;;;8.93;3.20;;;6.90;99.90;;;;;;2093936;68;20324;-74
2022/04/12 00:15:11;;;;;;;5.82;2.80;;;6.90;99.90;;;;;;2096597;68;20174;-74
2022/04/12 00:20:54;;;;;;;4.53;3.20;;;6.90;99.90;;;;;;2096413;68;20172;-73
2022/04/12 00:23:35;;;;;;;6.50;3.15;;;6.80;99.90;;;;;;2082030;68;20244;-73
2022/04/12 00:26:18;;;;;;;7.43;3.78;;;6.80;99.90;;;;;;2096092;68;20379;-73
2022/04/12 00:29:00;;;;;;;6.00;3.50;;;6.80;99.90;;;;;;2090885;68;20397;-73
2022/04/12 00:31:44;;;;;;;8.20;3.50;;;6.70;99.90;;;;;;2087039;68;20357;-73
2022/04/12 00:34:31;;;;;;;7.55;3.28;;;6.70;99.90;;;;;;2090288;68;20703;-74
2022/04/12 00:37:15;;;;;;;7.40;3.28;;;6.70;99.90;;;;;;2095883;68;20292;-74
2022/04/12 00:39:57;;;;;;;6.25;3.33;;;6.70;99.90;;;;;;2097029;68;20216;-73
2022/04/12 00:42:44;;;;;;;4.50;3.65;;;6.70;99.90;;;;;;2100743;68;20794;-74
2022/04/12 00:45:29;;;;;;;5.78;3.00;;;6.70;99.90;;;;;;2100999;67;20256;-72
2022/04/12 00:48:12;;;;;;;5.53;3.28;;;6.60;99.90;;;;;;2126173;67;20453;-73
2022/04/12 00:50:57;;;;;;;5.95;3.70;;;6.80;99.90;;;;;;2124927;67;20559;-73
2022/04/12 00:53:39;;;;;;;4.65;3.05;;;6.70;99.90;;;;;;2128830;67;20717;-74
2022/04/12 00:56:21;;;;;;;7.03;3.38;;;6.60;99.90;;;;;;2124465;67;20685;-73
2022/04/12 00:59:08;;;;;;;3.97;2.95;;;6.60;99.90;;;;;;2124254;67;20210;-73
2022/04/12 01:01:53;;;;;;;7.53;4.13;;;7.10;99.90;;;;;;2117994;67;20426;-74
2022/04/12 01:04:34;;;;;;;5.47;3.72;;;6.60;99.90;;;;;;2118697;67;20305;-74
2022/04/12 01:07:17;;;;;;;8.25;4.07;;;6.60;99.90;;;;;;2118805;67;20236;-72
2022/04/12 01:10:00;;;;;;;6.35;4.05;;;6.60;99.90;;;;;;2132472;67;20230;-73
2022/04/12 01:12:42;;;;;;;6.45;3.80;;;6.60;99.90;;;;;;2137281;66;20750;-74
2022/04/12 01:15:28;;;;;;;6.10;4.05;;;6.80;99.90;;;;;;2138504;66;20607;-74
2022/04/12 01:18:11;;;;;;;5.35;3.75;;;6.50;99.90;;;;;;2133662;67;20196;-74
2022/04/12 01:20:54;;;;;;;6.43;4.05;;;6.50;99.90;;;;;;2118725;67;20239;-73
2022/04/12 01:23:38;;;;;;;;;;;6.40;99.90;;;;;;2131453;67;20260;-74
2022/04/12 01:26:22;;;;;;;5.95;4.57;;;6.40;99.90;;;;;;2128338;67;20148;-73
2022/04/12 01:29:04;;;;;;;6.97;3.90;;;6.40;99.90;;;;;;2114337;67;20197;-74
2022/04/12 01:31:51;;;;;;;9.00;4.43;;;6.30;99.90;;;;;;2124682;67;20936;-74
2022/04/12 01:34:35;;;;;;;;;;;6.20;99.90;;;;;;2138821;66;20940;-73
2022/04/12 01:37:21;;;;;;;6.45;3.75;;;6.20;99.90;;;;;;2129788;67;20340;-72
2022/04/12 01:40:06;;;;;;;7.18;3.70;;;6.20;99.90;;;;;;2127692;67;20312;-73
2022/04/12 01:42:50;;;;;;;5.55;4.22;;;6.10;99.90;;;;;;2123716;67;20349;-72
2022/04/12 01:45:32;;;;;;;8.43;4.35;;;6.10;99.90;;;;;;2128474;67;20179;-73
2022/04/12 01:48:14;;;;;;;6.88;4.38;;;6.10;99.90;;;;;;2115731;67;21048;-73
2022/04/12 01:50:57;;;;;;;5.35;4.32;;;6.00;99.90;;;;;;2109563;67;20641;-74
2022/04/12 01:53:41;;;;;;;7.75;4.65;;;6.00;99.90;;;;;;2119805;67;20338;-73
2022/04/12 01:56:24;;;;;;;10.45;4.80;;;6.00;99.90;;;;;;2118161;67;20205;-73
2022/04/12 01:59:06;;;;;;;7.00;4.13;;;5.90;99.90;;;;;;2131432;67;20180;-73
2022/04/12 02:01:49;;;;;;;8.32;4.45;;;5.90;99.90;;;;;;2137077;66;20211;-73
2022/04/12 02:04:31;;;;;;;6.97;4.45;;;5.90;99.90;;;;;;2127948;67;20249;-73
2022/04/12 02:07:18;;;;;;;6.00;4.15;;;5.90;99.90;;;;;;2113938;67;20696;-73
2022/04/12 02:10:05;;;;;;;6.75;4.53;;;5.80;99.90;;;;;;2125608;67;20724;-73
2022/04/12 02:12:50;;;;;;;7.25;4.93;;;5.70;99.90;;;;;;2135722;67;20323;-73
2022/04/12 02:15:33;;;;;;;8.30;4.97;;;5.70;99.90;;;;;;2139269;67;20203;-73
2022/04/12 02:18:15;;;;;;;8.88;4.82;;;5.70;99.90;;;;;;2131418;67;20187;-72
2022/04/12 02:20:57;;;;;;;9.15;5.60;;;5.60;99.90;;;;;;2117642;67;20301;-73
2022/04/12 02:23:40;;;;;;;6.88;5.07;;;5.60;99.90;;;;;;2117845;67;20628;-73
2022/04/12 02:26:22;;;;;;;7.95;4.50;;;5.60;99.90;;;;;;2116113;67;20182;-74
2022/04/12 02:29:04;;;;;;;6.90;4.97;;;5.60;99.90;;;;;;2113189;67;20305;-74
2022/04/12 02:31:48;;;;;;;5.50;4.35;;;5.50;99.90;;;;;;2115160;67;20389;-73
2022/04/12 02:34:29;;;;;;;9.48;5.18;;;5.50;99.90;;;;;;2116060;67;20217;-74
2022/04/12 02:37:15;;;;;;;8.45;5.05;;;5.40;99.90;;;;;;2126262;67;20176;-73
2022/04/12 02:40:02;;;;;;;7.95;4.72;;;5.40;99.90;;;;;;2132882;67;21025;-72
2022/04/12 02:42:48;;;;;;;7.47;5.03;;;5.40;99.90;;;;;;2133134;67;20725;-74
2022/04/12 02:45:34;;;;;;;6.93;4.88;;;5.40;99.90;;;;;;2132682;67;20175;-73
2022/04/12 02:48:19;;;;;;;8.00;5.55;;;5.40;99.90;;;;;;2119210;67;20298;-73
2022/04/12 02:51:01;;;;;;;8.38;5.63;;;5.40;99.90;;;;;;2138761;66;20238;-73
2022/04/12 02:53:43;;;;;;;9.35;5.53;;;5.40;99.90;;;;;;2150082;66;20748;-73
2022/04/12 02:56:26;;;;;;;7.05;5.43;;;5.40;99.90;;;;;;2144717;66;20261;-72
2022/04/12 02:59:11;;;;;;;9.10;5.95;;;5.40;99.90;;;;;;2146258;66;20177;-73
2022/04/12 03:01:53;;;;;;;7.95;5.47;;;5.40;99.90;;;;;;2142046;66;20175;-73
2022/04/12 03:04:44;;;;;;;7.97;5.78;;;5.40;99.90;;;;;;2140078;66;20199;-73
2022/04/12 03:07:26;;;;;;;8.38;5.47;;;5.40;99.90;;;;;;2130476;67;20320;-73
2022/04/12 03:10:11;;;;;;;7.78;5.72;;;5.40;99.90;;;;;;2126498;67;20642;-73
2022/04/12 03:12:56;;;;;;;7.70;6.72;;;5.50;99.90;;;;;;2133503;66;20271;-73
2022/04/12 03:15:39;;;;;;;9.43;6.03;;;5.50;99.90;;;;;;2121291;67;20743;-73
2022/04/12 03:18:21;;;;;;;8.45;6.03;;;5.50;99.90;;;;;;2141430;66;20233;-73
2022/04/12 03:21:06;;;;;;;8.67;6.50;;;5.60;99.90;;;;;;2144437;66;20415;-73
2022/04/12 03:23:50;;;;;;;9.50;6.23;;;5.50;99.90;;;;;;2141497;66;20421;-74
2022/04/12 03:26:32;;;;;;;14.30;6.82;;;5.50;99.90;;;;;;2124968;67;20190;-73
2022/04/12 03:29:14;;;;;;;12.70;6.97;;;5.50;99.90;;;;;;2125701;67;20200;-73
2022/04/12 03:31:56;;;;;;;9.52;6.88;;;5.50;99.90;;;;;;2132075;67;20254;-73
2022/04/12 03:34:40;;;;;;;8.90;6.68;;;5.50;99.90;;;;;;2115599;67;20197;-73
2022/04/12 03:37:22;;;;;;;8.77;6.72;;;5.50;99.90;;;;;;2104634;67;20204;-73
2022/04/12 03:40:09;;;;;;;11.90;7.10;;;5.40;99.90;;;;;;2110357;67;20786;-73
2022/04/12 03:42:52;;;;;;;9.90;7.05;;;5.40;99.90;;;;;;2113589;67;20338;-73
2022/04/12 03:45:33;;;;;;;11.90;7.13;;;5.40;99.90;;;;;;2121353;67;20227;-73
2022/04/12 03:48:16;;;;;;;10.90;7.22;;;5.40;99.90;;;;;;2118055;67;20781;-73
2022/04/12 03:50:58;;;;;;;11.85;7.20;;;5.40;99.90;;;;;;2103498;67;20437;-73
2022/04/12 03:53:41;;;;;;;13.23;8.43;;;5.40;99.90;;;;;;2101315;68;20699;-73
2022/04/12 03:56:22;;;;;;;9.18;7.65;;;5.40;99.90;;;;;;2114627;67;20731;-73
2022/04/12 03:59:04;;;;;;;12.73;7.75;;;5.40;99.90;;;;;;2130391;67;20276;-74
2022/04/12 04:01:46;;;;;;;11.98;8.13;;;5.40;99.90;;;;;;2121497;67;20578;-74
2022/04/12 04:04:29;;;;;;;9.15;7.25;;;5.40;99.90;;;;;;2111055;67;20288;-73
2022/04/12 04:07:11;;;;;;;10.23;7.75;;;5.50;99.90;;;;;;2113869;67;20262;-72
2022/04/12 04:09:55;;;;;;;9.90;6.93;;;5.50;99.90;;;;;;2111657;67;20177;-73
2022/04/12 04:12:39;;;;;;;;;;;5.50;99.90;;;;;;2115374;67;20333;-73
2022/04/12 04:15:21;;;;;;;10.23;7.07;;;5.50;99.90;;;;;;2102543;68;20121;-73
2022/04/12 04:18:04;;;;;;;12.57;7.97;;;5.50;99.90;;;;;;2114699;67;20208;-73
2022/04/12 04:20:46;;;;;;;9.30;7.35;;;5.50;99.90;;;;;;2110703;67;20210;-73
2022/04/12 04:23:28;;;;;;;11.32;7.20;;;5.50;99.90;;;;;;2104673;68;20284;-73
2022/04/12 04:26:11;;;;;;;8.90;7.60;;;5.50;99.90;;;;;;2111956;67;20204;-74
2022/04/12 04:28:53;;;;;;;9.52;8.13;;;5.40;99.90;;;;;;2111444;67;20404;-73
2022/04/12 04:31:35;;;;;;;12.98;7.78;;;5.40;99.90;;;;;;2117778;67;20317;-72
2022/04/12 04:34:17;;;;;;;9.70;7.13;;;5.40;99.90;;;;;;2123078;67;20216;-73
2022/04/12 04:37:01;;;;;;;10.60;7.80;;;5.40;99.90;;;;;;2112274;67;20307;-73
2022/04/12 04:39:54;;;;;;;7.78;6.93;;;5.40;99.90;;;;;;2125640;67;20376;-73
2022/04/12 04:42:36;;;;;;;11.75;7.85;;;5.40;99.90;;;;;;2127476;67;20291;-72
2022/04/12 04:45:20;;;;;;;10.90;7.38;;;5.30;99.90;;;;;;2125454;67;20391;-72
2022/04/12 04:48:04;;;;;;;9.93;7.63;;;5.30;99.90;;;;;;2128376;67;20195;-73
2022/04/12 04:50:46;;;;;;;11.63;7.10;;;5.30;99.90;;;;;;2127407;67;20183;-73
2022/04/12 04:53:28;;;;;;;10.70;7.78;;;5.20;99.90;;;;;;2117669;67;20354;-73
2022/04/12 04:56:13;;;;;;;14.43;7.57;;;5.20;99.90;;;;;;2110017;67;20178;-74
2022/04/12 04:58:58;;;;;;;11.82;8.48;;;5.10;99.90;;;;;;2100298;68;20319;-72
2022/04/12 05:01:41;;;;;;;10.52;7.78;;;5.20;99.90;;;;;;2105218;67;20206;-72
2022/04/12 05:04:26;;;;;;;10.85;7.68;;;5.10;99.90;;;;;;2104196;68;20353;-73
2022/04/12 05:07:09;;;;;;;9.63;7.90;;;5.10;99.90;;;;;;2104658;67;20228;-72
2022/04/12 05:09:55;;;;;;;10.32;7.25;;;5.10;99.90;;;;;;2100250;68;20183;-73
2022/04/12 05:12:39;;;;;;;9.52;7.32;;;5.10;99.90;;;;;;2108613;67;20303;-73
2022/04/12 05:15:22;;;;;;;11.40;7.75;;;5.10;99.90;;;;;;2109786;67;20185;-74
2022/04/12 05:18:04;;;;;;;9.48;7.95;;;5.10;99.90;;;;;;2109249;67;20684;-74
2022/04/12 05:20:46;;;;;;;11.40;8.27;;;5.10;99.90;;;;;;2124139;67;20321;-73
2022/04/12 05:23:31;;;;;;;10.85;8.45;;;5.10;99.90;;;;;;2125823;67;20204;-73
2022/04/12 05:26:13;;;;;;;15.63;8.95;;;5.20;99.90;;;;;;2125463;67;20372;-72
2022/04/12 05:28:55;;;;;;;14.10;8.00;;;5.30;99.90;;;;;;2134653;67;20450;-73
2022/04/12 05:31:38;;;;;;;12.18;8.25;;;5.40;99.90;;;;;;2134986;67;20180;-73
2022/04/12 05:34:22;;;;;;;11.00;7.95;;;5.50;99.90;;;;;;2141529;66;20335;-73
2022/04/12 05:37:06;;;;;;;10.95;7.72;;;5.70;99.90;;;;;;2141748;66;20199;-74
2022/04/12 05:39:48;;;;;;;12.48;7.70;;;5.80;99.90;;;;;;2140049;67;20179;-73
2022/04/12 05:42:30;;;;;;;12.52;8.15;;;6.00;99.90;;;;;;2124370;67;20483;-74
2022/04/12 05:45:13;;;;;;;13.95;8.00;;;6.10;99.90;;;;;;2117833;67;20777;-73
2022/04/12 05:47:54;;;;;;;9.35;7.75;;;6.20;99.90;;;;;;2127298;67;20407;-73
2022/04/12 05:50:36;;;;;;;10.00;7.75;;;6.50;99.90;;;;;;2108690;67;20178;-73
2022/04/12 05:53:22;;;;;;;11.50;7.63;;;6.40;99.90;;;;;;2092893;68;20257;-72
2022/04/12 05:56:06;;;;;;;9.50;7.75;;;6.60;99.90;;;;;;2101164;68;20319;-73
2022/04/12 05:58:49;;;;;;;12.30;7.32;;;6.70;99.90;;;;;;2111956;67;20199;-72
2022/04/12 06:01:31;;;;;;;11.07;8.02;;;6.70;99.90;;;;;;2095516;68;20262;-73
2022/04/12 06:04:13;;;;;;;11.30;8.00;;;6.80;99.90;;;;;;2110797;67;20182;-72
2022/04/12 06:06:55;;;;;;;11.30;7.70;;;6.90;99.90;;;;;;2109348;67;20319;-73
2022/04/12 06:09:38;;;;;;;8.65;7.32;;;6.90;99.90;;;;;;2118760;67;20236;-73
2022/04/12 06:12:20;;;;;;;14.93;8.95;;;7.00;99.90;;;;;;2105767;68;20241;-72
2022/04/12 06:15:02;;;;;;;12.27;7.68;;;7.10;99.90;;;;;;2107332;67;20189;-73
2022/04/12 06:17:45;;;;;;;19.33;7.68;;;7.20;99.90;;;;;;2119052;67;20315;-73
2022/04/12 06:20:28;;;;;;;12.45;8.38;;;7.30;99.90;;;;;;2111175;67;20349;-74
2022/04/12 06:23:13;;;;;;;10.50;7.00;;;7.30;99.90;;;;;;2119447;67;20280;-74
2022/04/12 06:25:55;;;;;;;11.07;7.80;;;7.40;99.90;;;;;;2108234;67;20174;-73
2022/04/12 06:28:40;;;;;;;13.23;7.93;;;7.50;99.90;;;;;;2118023;67;20244;-72
2022/04/12 06:31:26;;;;;;;10.43;8.48;;;7.60;99.90;;;;;;2124999;67;20205;-73
2022/04/12 06:34:13;;;;;;;10.82;7.43;;;7.70;99.90;;;;;;2118010;67;20323;-75
2022/04/12 06:36:58;;;;;;;12.38;7.72;;;7.80;99.90;;;;;;2123769;67;20253;-76
2022/04/12 06:39:40;;;;;;;10.73;7.82;;;7.90;99.90;;;;;;2118952;67;20283;-76
2022/04/12 06:42:22;;;;;;;11.18;8.52;;;8.00;99.90;;;;;;2116408;67;20248;-75
2022/04/12 06:45:04;;;;;;;11.25;8.13;;;8.20;99.90;;;;;;2125864;67;20210;-76
2022/04/12 06:47:53;;;;;;;10.50;7.68;;;8.30;99.90;;;;;;2138174;67;20320;-76
2022/04/12 06:50:41;;;;;;;11.75;8.85;;;8.40;99.90;;;;;;2125169;67;20231;-77
2022/04/12 06:53:23;;;;;;;13.45;8.68;;;8.50;99.90;;;;;;2119800;67;20240;-74
2022/04/12 06:56:07;;;;;;;13.07;7.93;;;8.50;99.90;;;;;;2111462;67;20511;-74
2022/04/12 06:58:51;;;;;;;13.13;8.15;;;8.60;99.90;;;;;;2116566;67;20216;-76
2022/04/12 07:01:36;;;;;;;9.85;7.80;;;8.70;99.90;;;;;;2109454;67;20305;-76
2022/04/12 07:04:21;;;;;;;11.13;7.95;;;8.70;99.90;;;;;;2115323;67;20330;-76
2022/04/12 07:07:04;;;;;;;11.77;8.02;;;8.70;99.90;;;;;;2116982;67;20393;-75
2022/04/12 07:09:48;;;;;;;10.52;7.68;;;8.70;99.90;;;;;;2111589;67;20194;-77
2022/04/12 07:12:37;;;;;;;11.90;8.45;;;8.70;99.90;;;;;;2119544;67;20210;-78
2022/04/12 07:15:22;;;;;;;7.97;7.18;;;8.70;99.90;;;;;;2124730;67;20205;-76
2022/04/12 07:18:05;;;;;;;11.82;8.65;;;8.70;99.90;;;;;;2125854;67;20205;-76
2022/04/12 07:20:55;;;;;;;11.30;8.50;;;8.50;99.90;;;;;;2112197;67;20307;-76
2022/04/12 07:23:41;;;;;;;11.07;8.55;;;8.60;99.90;;;;;;2104772;68;20633;-77
2022/04/12 07:26:27;;;;;;;10.13;7.78;;;8.50;99.90;;;;;;2103334;68;20328;-75
2022/04/12 07:29:10;;;;;;;11.60;8.02;;;8.50;99.90;;;;;;2099075;68;20364;-76
2022/04/12 07:32:04;;;;;;;12.57;9.05;;;8.50;99.90;;;;;;2111728;67;20173;-77
2022/04/12 07:34:47;;;;;;;10.73;7.50;;;8.90;99.90;;;;;;2110007;67;20314;-76
2022/04/12 07:37:31;;;;;;;12.40;7.88;;;8.50;99.90;;;;;;2104446;68;20729;-76
2022/04/12 07:40:15;;;;;;;9.82;7.35;;;8.60;99.90;;;;;;2110977;67;20646;-77
2022/04/12 07:43:03;;;;;;;10.60;8.57;;;8.60;99.90;;;;;;2118538;67;20370;-77
2022/04/12 07:45:46;;;;;;;12.63;8.43;;;8.60;99.90;;;;;;2123211;67;20398;-78
2022/04/12 07:48:32;;;;;;;11.32;8.02;;;8.60;99.90;;;;;;2126438;67;20233;-76
2022/04/12 07:51:17;;;;;;;12.52;8.70;;;8.70;99.90;;;;;;2120054;67;20276;-77
2022/04/12 07:54:01;;;;;;;14.65;8.50;;;8.70;99.90;;;;;;2112711;67;20245;-78
2022/04/12 07:56:41;;;;;;;10.35;8.18;;;8.80;99.90;;;;;;2110611;67;20191;-75
2022/04/12 07:59:22;;;;;;;12.65;7.97;;;9.00;99.90;;;;;;2099620;67;20695;-74
2022/04/12 08:01:59;;;;;;;12.18;8.77;;;8.90;99.90;;;;;;2118240;67;20236;-75
2022/04/12 08:04:36;;;;;;;13.15;8.45;;;9.00;99.90;;;;;;2118730;67;20232;-76
2022/04/12 08:07:13;;;;;;;11.35;7.78;;;9.10;99.90;;;;;;2119316;67;20319;-77
2022/04/12 08:09:49;;;;;;;13.90;7.85;;;9.20;99.60;;;;;;2133586;66;20840;-74
2022/04/12 08:12:27;;;;;;;11.82;8.60;;;9.20;99.30;;;;;;2133484;67;20191;-75
2022/04/12 08:15:19;;;;;;;14.32;8.10;;;9.30;99.00;;;;;;2153420;66;20648;-75
2022/04/12 08:18:12;;;;;;;14.25;8.25;;;9.50;99.10;;;;;;2155927;66;20612;-75
2022/04/12 08:21:02;;;;;;;12.02;8.45;;;9.50;98.80;;;;;;2153303;66;20215;-74
2022/04/12 08:23:38;;;;;;;12.63;8.52;;;9.70;98.60;;;;;;2157744;66;20343;-76
2022/04/12 08:26:15;;;;;;;13.98;8.68;;;9.80;98.40;;;;;;2176870;65;20769;-76
2022/04/12 08:28:51;;;;;;;10.15;8.50;;;9.90;98.30;;;;;;2176786;65;20266;-75
2022/04/12 08:31:22;;;;;;;11.85;8.73;;;10.00;97.60;;;;;;2175982;65;20189;-77
2022/04/12 08:33:58;;;;;;;13.70;8.05;;;10.20;97.40;;;;;;2178158;65;20242;-76
2022/04/12 08:36:49;;;;;;;9.98;8.10;;;10.40;97.30;;;;;;2168078;66;20196;-75
2022/04/12 08:39:24;;;;;;;13.10;8.32;;;10.60;97.00;;;;;;2161750;66;20228;-75
2022/04/12 08:42:05;;;;;;;10.65;7.55;;;10.80;96.20;;;;;;2164456;65;20179;-75
2022/04/12 08:44:45;;;;;;;9.80;8.15;;;11.00;95.40;;;;;;2178182;65;20212;-77
2022/04/12 08:47:23;;;;;;;10.50;8.15;;;11.10;95.10;;;;;;2191020;65;20194;-76
2022/04/12 08:50:06;;;;;;;10.93;8.18;;;11.30;94.90;;;;;;2191332;65;20340;-77
2022/04/12 08:52:43;;;;;;;12.68;7.82;;;11.40;94.20;;;;;;2191090;65;20237;-75
2022/04/12 08:55:20;;;;;;;11.57;8.32;;;11.50;93.90;;;;;;2201490;65;20322;-77
2022/04/12 08:58:04;;;;;;;9.18;7.72;;;11.70;93.70;;;;;;2184203;65;20179;-78
2022/04/12 09:00:54;;;;;;;11.82;8.25;;;11.80;93.60;;;;;;2178689;65;20167;-75
2022/04/12 09:03:43;;;;;;;9.70;7.63;;;11.90;93.20;;;;;;2166073;66;20172;-77
2022/04/12 09:06:30;;;;;;;11.05;7.78;;;12.10;92.80;;;;;;2154413;66;20224;-77
2022/04/12 09:09:19;;;;;;;12.95;7.75;;;12.20;92.60;;;;;;2146873;66;20708;-76
2022/04/12 09:12:10;;;;;;;11.98;8.38;;;12.40;92.70;;;;;;2139665;66;20545;-76
2022/04/12 09:14:58;;;;;;;7.57;6.72;;;12.50;92.50;;;;;;2124920;67;20232;-77
2022/04/12 09:17:48;;;;;;;12.32;8.57;;;12.70;92.30;;;;;;2118315;67;20173;-77
2022/04/12 09:20:30;;;;;;;9.05;7.88;;;12.80;91.90;;;;;;2111787;67;20327;-77
2022/04/12 09:23:17;;;;;;;10.60;8.82;;;12.90;91.60;;;;;;2104616;68;20548;-77
2022/04/12 09:26:08;;;;;;;13.10;8.65;;;13.00;91.20;;;;;;2091058;68;20584;-77
2022/04/12 09:29:02;;;;;;;10.45;8.35;;;12.90;90.30;;;;;;2084200;68;20192;-78
2022/04/12 09:31:44;;;;;;;10.77;8.02;;;13.00;90.30;;;;;;2089947;68;20319;-76
2022/04/12 09:34:26;;;;;;;10.95;8.30;;;13.10;90.30;;;;;;2097234;68;20425;-77
2022/04/12 09:37:20;;;;;;;8.35;7.38;;;13.10;90.20;;;;;;2106600;67;20307;-76
2022/04/12 09:40:02;;;;;;;10.07;8.20;;;13.20;89.70;;;;;;2110986;67;20334;-75
2022/04/12 09:42:50;;;;;;;11.48;8.45;;;13.30;89.40;;;;;;2111536;67;20303;-77
2022/04/12 09:45:33;;;;;;;10.43;8.32;;;13.40;88.50;;;;;;2103852;68;20191;-77
2022/04/12 09:48:15;;;;;;;9.88;8.18;;;13.60;87.80;;;;;;2127067;67;20477;-76
2022/04/12 09:51:04;;;;;;;10.38;8.00;;;13.80;86.60;;;;;;2117702;67;21006;-75
2022/04/12 09:53:50;;;;;;;11.25;7.97;;;13.80;85.20;;;;;;2124999;67;20325;-76
2022/04/12 09:56:34;;;;;;;10.90;6.82;;;13.90;85.40;;;;;;2117646;67;20181;-76
2022/04/12 09:59:16;;;;;;;11.57;8.10;;;14.10;85.40;;;;;;2117679;67;20192;-75
2022/04/12 10:02:01;;;;;;;11.32;8.40;;;14.20;85.00;;;;;;2116576;67;20287;-78
2022/04/12 10:04:36;;;;;;;;;;;14.40;82.90;;;;;;2112527;67;20177;-77
2022/04/12 10:07:31;;;;;;;11.38;7.70;;;14.50;81.30;;;;;;2126085;67;20079;-78
2022/04/12 10:10:04;;;;;;;9.40;7.57;;;14.60;81.70;;;;;;2132342;67;20271;-78
2022/04/12 10:12:42;;;;;;;13.18;8.27;;;14.70;81.00;;;;;;2139437;66;20586;-78
2022/04/12 10:15:21;;;;;;;11.05;8.18;;;14.80;79.50;;;;;;2153607;66;20338;-78
2022/04/12 10:17:59;;;;;;;8.63;7.18;;;14.90;78.20;;;;;;2154010;66;20225;-76
2022/04/12 10:20:40;;;;;;;16.50;8.98;;;15.00;78.30;;;;;;2146529;66;20257;-78
2022/04/12 10:23:22;;;;;;;12.82;8.40;;;15.10;78.20;;;;;;2146777;66;20237;-77
2022/04/12 10:26:22;;;;;;;9.05;8.15;;;15.20;77.50;;;;;;2160910;66;20359;-77
2022/04/12 10:29:04;;;;;;;8.38;7.57;;;15.30;77.00;;;;;;2178382;65;20266;-79
2022/04/12 10:32:04;;;;;;;10.27;8.20;;;15.40;77.70;;;;;;2181611;65;20277;-78
2022/04/12 10:35:01;;;;;;;10.82;7.95;;;15.60;77.30;;;;;;2193646;65;20312;-80
2022/04/12 10:37:41;;;;;;;11.70;9.63;;;15.70;76.10;;;;;;2191418;65;20724;-77
2022/04/12 10:40:19;;;;;;;11.23;7.63;;;15.90;76.00;;;;;;2197675;65;20232;-77
2022/04/12 10:42:57;;;;;;;11.10;8.35;;;16.10;75.10;;;;;;2193601;65;20313;-77
2022/04/12 10:45:33;;;;;;;11.70;8.18;;;16.40;74.30;;;;;;2229124;64;20377;-77
2022/04/12 10:48:21;;;;;;;10.30;8.43;;;16.80;73.10;;;;;;2231826;64;20763;-79
2022/04/12 10:51:01;;;;;;;10.30;7.82;;;17.30;71.90;;;;;;2231233;64;20178;-78
2022/04/12 10:53:40;;;;;;;10.23;7.47;;;17.70;72.00;;;;;;2231670;64;20194;-77
2022/04/12 10:56:18;;;;;;;10.82;7.68;;;18.20;71.20;;;;;;2231284;64;20578;-80
2022/04/12 10:59:40;;;;;;;12.43;8.23;;;18.70;70.40;;;;;;2223181;64;20239;-79
2022/04/12 11:02:20;;;;;;;9.18;7.00;;;19.20;66.50;;;;;;2222744;64;20304;-81
2022/04/12 11:05:01;;;;;;;9.63;8.57;;;19.60;66.60;;;;;;2194450;65;20346;-79
2022/04/12 11:07:44;;;;;;;11.10;7.93;;;19.90;65.10;;;;;;2192462;65;20293;-79
2022/04/12 11:10:26;;;;;;;9.85;7.80;;;20.20;63.00;;;;;;2178110;65;20439;-79
2022/04/12 11:13:10;;;;;;;9.70;7.75;;;20.50;61.30;;;;;;2163213;66;20200;-78
2022/04/12 11:16:15;;;;;;;10.27;9.25;;;20.70;60.40;;;;;;2156360;66;20265;-77
2022/04/12 11:19:03;;;;;;;11.15;8.00;;;21.10;60.40;;;;;;2171130;66;20340;-78
2022/04/12 11:21:51;;;;;;;9.10;8.20;;;21.50;59.00;;;;;;2156524;66;20867;-77
2022/04/12 11:24:37;;;;;;;9.80;8.80;;;22.00;57.90;;;;;;2140886;67;20190;-78
2022/04/12 11:27:29;;;;;;;10.57;8.50;;;22.20;56.50;;;;;;2141096;67;20287;-78
2022/04/12 11:30:15;;;;;;;9.30;8.38;;;22.70;55.40;;;;;;2129824;67;20828;-77
2022/04/12 11:33:01;;;;;;;9.18;8.13;;;23.10;54.30;;;;;;2126351;67;20219;-78
2022/04/12 11:35:44;;;;;;;8.98;7.80;;;23.60;53.30;;;;;;2112234;67;20196;-81
2022/04/12 11:38:29;;;;;;;10.38;7.30;;;23.90;52.60;;;;;;2106997;67;20178;-79
2022/04/12 11:41:12;;;;;;;9.55;8.23;;;24.30;51.20;;;;;;2099345;68;20202;-80
2022/04/12 11:44:04;;;;;;;9.68;8.00;;;24.50;50.40;;;;;;2095908;68;20331;-83
2022/04/12 11:46:46;;;;;;;8.52;7.57;;;24.60;49.30;;;;;;2091686;68;20328;-82
2022/04/12 11:49:47;;;;;;;9.50;8.23;;;24.70;49.00;;;;;;2086195;68;20822;-79
2022/04/12 11:52:29;;;;;;;9.68;8.05;;;24.70;49.00;;;;;;2072332;69;20613;-74
2022/04/12 11:55:12;;;;;;;9.10;8.20;;;24.80;48.50;;;;;;2080892;68;20436;-75
2022/04/12 11:57:54;;;;;;;8.65;7.60;;;24.80;48.10;;;;;;2092534;68;20429;-77
2022/04/12 12:00:38;;;;;;;11.20;8.57;;;24.80;47.60;;;;;;2106118;67;20695;-77
2022/04/12 12:03:23;;;;;;;8.43;7.57;;;24.70;47.30;;;;;;2112751;67;20723;-77
2022/04/12 12:06:09;;;;;;;10.75;8.88;;;24.60;47.70;;;;;;2097990;68;20365;-82
2022/04/12 12:08:51;;;;;;;12.88;7.90;;;24.50;48.00;;;;;;2112094;67;20369;-80
2022/04/12 12:11:36;;;;;;;9.98;8.48;;;24.40;47.60;;;;;;2111595;67;20704;-74
2022/04/12 12:14:21;;;;;;;8.15;7.35;;;24.30;47.80;;;;;;2126781;67;20312;-75
2022/04/12 12:17:09;;;;;;;9.52;8.50;;;24.20;48.30;;;;;;2130234;67;20202;-76
2022/04/12 12:19:56;;;;;;;9.63;8.73;;;24.10;48.10;;;;;;2125487;67;20212;-76
2022/04/12 12:22:45;;;;;;;9.70;8.02;;;24.20;47.90;;;;;;2126234;67;20280;-77
2022/04/12 12:25:47;;;;;;;12.23;8.50;;;24.10;47.90;;;;;;2120391;67;20632;-80
2022/04/12 12:28:29;;;;;;;10.50;8.43;;;24.40;48.00;;;;;;2111829;67;20203;-83
2022/04/12 12:31:16;;;;;;;11.52;8.55;;;24.50;48.60;;;;;;2105505;67;20206;-79
2022/04/12 12:33:59;;;;;;;9.40;8.40;;;24.60;48.20;;;;;;2113694;67;20658;-78
2022/04/12 12:36:53;;;;;;;9.90;8.45;;;24.80;47.60;;;;;;2139185;67;20250;-81
2022/04/12 12:39:39;;;;;;;9.75;8.52;;;25.10;47.80;;;;;;2132185;67;20424;-77
2022/04/12 12:42:23;;;;;;;12.75;8.77;;;25.50;47.40;;;;;;2132390;67;20326;-78
2022/04/12 12:45:13;;;;;;;9.63;7.78;;;25.80;46.60;;;;;;2129049;67;20164;-75
2022/04/12 12:47:57;;;;;;;9.32;7.95;;;25.90;46.30;;;;;;2117060;67;20252;-81
2022/04/12 12:50:42;;;;;;;10.98;8.00;;;25.90;45.80;;;;;;2112511;67;20334;-81
2022/04/12 12:53:27;;;;;;;8.82;7.93;;;25.50;45.20;;;;;;2107534;67;20218;-81
2022/04/12 12:56:17;;;;;;;9.75;8.10;;;25.10;45.80;;;;;;2110857;67;20319;-85
2022/04/12 12:59:21;;;;;;;11.25;8.85;;;24.90;45.80;;;;;;2120182;67;20310;-85
2022/04/12 13:02:11;;;;;;;8.73;7.75;;;24.90;46.30;;;;;;2109641;67;20312;-80
2022/04/12 13:04:55;;;;;;;12.68;8.98;;;25.10;47.20;;;;;;2117214;67;20219;-80
2022/04/12 13:07:36;;;;;;;11.40;8.40;;;25.30;45.90;;;;;;2125158;67;20247;-79
2022/04/12 13:10:20;;;;;;;8.90;7.95;;;25.40;45.60;;;;;;2129626;67;20685;-84
2022/04/12 13:13:14;;;;;;;11.57;8.40;;;25.40;45.60;;;;;;2148154;66;20254;-81
2022/04/12 13:15:53;;;;;;;10.63;8.48;;;25.40;45.50;;;;;;2144184;66;20265;-81
2022/04/12 13:18:30;;;;;;;13.85;8.52;;;25.10;45.30;;;;;;2140758;66;20235;-79
2022/04/12 13:21:11;;;;;;;10.57;8.52;;;24.80;45.80;;;;;;2143894;66;20354;-80
2022/04/12 13:23:50;;;;;;;12.18;8.25;;;24.70;46.00;;;;;;2156636;66;20363;-79
2022/04/12 13:26:28;;;;;;;12.55;8.32;;;24.50;46.10;;;;;;2174918;65;20637;-79
2022/04/12 13:28:59;;;;;;;13.88;8.90;;;24.30;46.50;;;;;;2185001;65;20296;-80
2022/04/12 13:31:28;;;;;;;10.27;9.00;;;24.20;46.70;;;;;;2200107;65;20663;-81
2022/04/12 13:34:05;;;;;;;10.88;8.07;;;23.90;47.20;;;;;;2220855;64;20231;-81
2022/04/12 13:36:42;;;;;;;10.02;8.63;;;23.60;47.40;;;;;;2223106;64;20196;-80
2022/04/12 13:39:10;;;;;;;11.70;8.23;;;23.50;48.00;;;;;;2223385;64;20183;-80
2022/04/12 13:41:40;;;;;;;16.13;9.18;;;23.40;48.00;;;;;;2221555;64;20511;-79
2022/04/12 13:44:17;;;;;;;12.68;9.82;;;23.50;48.20;;;;;;2227599;64;20194;-81
2022/04/12 13:46:48;;;;;;;12.90;9.55;;;23.40;48.20;;;;;;2230197;64;20189;-78
2022/04/12 13:49:19;;;;;;;13.15;10.75;;;23.40;48.30;;;;;;2223409;64;20171;-81
2022/04/12 13:51:56;;;;;;;14.25;9.25;;;23.30;48.50;;;;;;2230571;64;20351;-79
2022/04/12 13:54:48;;;;;;;14.77;9.65;;;23.20;48.90;;;;;;2209723;64;20213;-78
2022/04/12 13:57:27;;;;;;;13.60;10.02;;;23.20;49.30;;;;;;2206489;64;20210;-78
2022/04/12 14:00:23;;;;;;;13.23;9.82;;;23.50;49.00;;;;;;2197363;65;20735;-82
2022/04/12 14:03:01;;;;;;;13.68;9.70;;;24.00;48.60;;;;;;2193157;65;20197;-83
2022/04/12 14:05:46;;;;;;;13.68;10.27;;;24.50;48.00;;;;;;2176077;65;20340;-82
2022/04/12 14:08:35;;;;;;;15.73;9.68;;;25.30;47.10;;;;;;2152311;66;20310;-81
2022/04/12 14:11:17;;;;;;;13.48;9.30;;;26.20;46.10;;;;;;2148639;66;20267;-80
2022/04/12 14:13:59;;;;;;;13.85;9.88;;;26.50;45.30;;;;;;2142992;66;20638;-81
2022/04/12 14:16:42;;;;;;;14.07;10.23;;;26.90;45.10;;;;;;2129498;67;20262;-78